Waterford, Wisconsin
Current Conditions -  °F | °C
As of 1:55 AM on Friday 24 Oct 2014 (Local Time) from KBUU Reporting Station
Overcast Overcast  
Wind Chill: 48°   Ceiling: 1500
Heat Index: 48°   Visibility: 7mi
Dew Point: 47°   Wind: 0mph
Humidity: 97%   Direction: NA
Pressure: 30.04"   Gusts: NA
Location:  42.76°N, 88.21°W
Report Text: KBUU 240655Z AUTO 00000KT 7SM OVC015 09/09 A3004 RMK AO2 T00900085
Loading
Personal Weather Stations






























Interactive Weather Map
Tropical Storm Tracking
New forecast layout! Learn more

10-Day Weather Forecast

Advertisements
Track Severe Weather on mobile